Jasper S — V2CQ4 — position and weather

sailwx.info

Track history (hours):
 
Tides and Currents Weather Stations Pressure Air Temp Water Temp Dewpoint Dewpoint Depression Visibility Wind Speed Wind Dir Waves Ship Positions

Jasper S

Last reported at 2015-Feb-28 13:05 UTC. Time now 2015-Mar-05 22:33 UTC.
Position N 41°22' E 029°10'.

Length 148 m; draft 8.7 m.

Type: Ship (hazmat cat A). MMSI: 305079000.

Date/timePositionNaut miles runAvg speedWind from/ knotsBaromVisibWave heightAir tempDewpointWater temp
2015-Feb-28 13:05N 41°22' E 029°10'610.8
2015-Feb-28 12:33N 41°17' E 029°11'30 0.7
2015-Feb-26 20:27N 40°57' E 028°40'1 0.1
2015-Feb-26 07:27N 40°57' E 028°41'1 0.1
2015-Feb-25 23:33N 40°56' E 028°40'0 0.0
2015-Feb-25 22:27N 40°56' E 028°40'0 0.0
2015-Feb-25 16:15N 40°56' E 028°40'7 0.9
2015-Feb-25 08:31N 40°55' E 028°49'1010.3
2015-Feb-25 07:32N 41°01' E 028°60'1511.0
2015-Feb-25 06:11N 41°14' E 029°08'7 9.2
2015-Feb-25 05:28N 41°20' E 029°04'  
2015-Feb-19 05:12N 40°58' E 028°40'0 0.0
2015-Feb-19 03:12N 40°58' E 028°40'0 0.0
2015-Feb-19 00:18N 40°58' E 028°40'0 0.0
2015-Feb-18 20:06N 40°58' E 028°40'  
Track history (hours):
 
Tides and Currents Weather Stations Pressure Air Temp Water Temp Dewpoint Dewpoint Depression Visibility Wind Speed Wind Dir Waves Ship Positions

Jasper S

Last reported at 2015-Feb-28 13:05 UTC. Time now 2015-Mar-05 22:33 UTC.
Position N 41°22' E 029°10'.

Length 148 m; draft 8.7 m.

Type: Ship (hazmat cat A). MMSI: 305079000.

Date/timePositionNaut miles runAvg speedWind from/ knotsBaromVisibWave heightAir tempDewpointWater temp
2015-Feb-28 13:05N 41°22' E 029°10'610.8
2015-Feb-28 12:33N 41°17' E 029°11'30 0.7
2015-Feb-26 20:27N 40°57' E 028°40'1 0.1
2015-Feb-26 07:27N 40°57' E 028°41'1 0.1
2015-Feb-25 23:33N 40°56' E 028°40'0 0.0
2015-Feb-25 22:27N 40°56' E 028°40'0 0.0
2015-Feb-25 16:15N 40°56' E 028°40'7 0.9
2015-Feb-25 08:31N 40°55' E 028°49'1010.3
2015-Feb-25 07:32N 41°01' E 028°60'1511.0
2015-Feb-25 06:11N 41°14' E 029°08'7 9.2
2015-Feb-25 05:28N 41°20' E 029°04'  
2015-Feb-19 05:12N 40°58' E 028°40'0 0.0
2015-Feb-19 03:12N 40°58' E 028°40'0 0.0
2015-Feb-19 00:18N 40°58' E 028°40'0 0.0
2015-Feb-18 20:06N 40°58' E 028°40'  

Dump ship's entire track history